Time;durP1;ratioP1;P1;durP2;ratioP2;P2;SDS_P1;SDS_P2;PMS_P1;PMS_P2;Temp;Humidity;BMP_temperature;BMP_pressure;BME280_temperature;BME280_humidity;BME280_pressure;Samples;Min_cycle;Max_cycle;Signal;HPM_P1;HPM_P2
2023/10/18 00:01:34;;;;;;;1.90;1.13;;;7.10;89.80;;;;;;5179177;27;20423;-77
2023/10/18 00:03:59;;;;;;;1.80;1.20;;;7.10;89.80;;;;;;5142522;27;20030;-78
2023/10/18 00:06:26;;;;;;;1.10;0.95;;;7.00;89.70;;;;;;5159856;27;20466;-79
2023/10/18 00:09:32;;;;;;;2.40;1.33;;;7.10;89.80;;;;;;5161671;27;20039;-78
2023/10/18 00:11:37;;;;;;;1.90;1.10;;;7.10;89.80;;;;;;5180941;27;20050;-78
2023/10/18 00:14:06;;;;;;;3.45;1.52;;;7.00;89.70;;;;;;5161730;27;20042;-78
2023/10/18 00:16:33;;;;;;;1.92;1.30;;;7.00;89.70;;;;;;5162134;27;20030;-78
2023/10/18 00:18:58;;;;;;;1.95;1.42;;;7.00;89.80;;;;;;5143654;27;20507;-78
2023/10/18 00:21:24;;;;;;;2.75;1.50;;;7.00;89.80;;;;;;5163485;27;20030;-78
2023/10/18 00:23:50;;;;;;;2.15;1.20;;;7.00;89.80;;;;;;5162307;27;20106;-78
2023/10/18 00:26:15;;;;;;;2.25;1.20;;;7.00;89.80;;;;;;5180788;27;20030;-77
2023/10/18 00:28:41;;;;;;;3.15;1.55;;;7.00;89.90;;;;;;5164393;27;20079;-79
2023/10/18 00:31:17;;;;;;;2.05;1.25;;;6.90;89.90;;;;;;5148612;27;20063;-78
2023/10/18 00:33:44;;;;;;;1.90;1.10;;;6.90;89.90;;;;;;5160892;27;20049;-79
2023/10/18 00:36:11;;;;;;;2.28;1.38;;;6.90;89.90;;;;;;5150312;27;20034;-78
2023/10/18 00:38:40;;;;;;;2.33;1.30;;;6.90;89.90;;;;;;5183705;27;20042;-78
2023/10/18 00:41:09;;;;;;;1.65;1.00;;;6.90;89.90;;;;;;5151715;27;20393;-78
2023/10/18 00:43:36;;;;;;;2.63;1.63;;;6.90;90.00;;;;;;5165916;27;20044;-78
2023/10/18 00:46:06;;;;;;;2.97;1.55;;;6.90;90.00;;;;;;5185942;27;20046;-78
2023/10/18 00:48:33;;;;;;;1.25;1.00;;;6.90;90.00;;;;;;5147787;27;20045;-78
2023/10/18 00:50:59;;;;;;;2.60;1.30;;;6.90;90.00;;;;;;5150091;27;20045;-78
2023/10/18 00:53:26;;;;;;;2.55;1.48;;;6.80;90.00;;;;;;5186814;27;20039;-78
2023/10/18 00:55:57;;;;;;;2.83;1.77;;;6.90;90.00;;;;;;5168101;27;20057;-78
2023/10/18 00:58:24;;;;;;;1.90;1.30;;;6.90;90.00;;;;;;5162466;27;20164;-78
2023/10/18 01:00:51;;;;;;;2.58;1.42;;;6.80;90.00;;;;;;5187729;27;20046;-79
2023/10/18 01:03:28;;;;;;;1.58;1.25;;;6.80;90.00;;;;;;5132351;27;20038;-78
2023/10/18 01:05:59;;;;;;;2.58;1.40;;;6.80;90.00;;;;;;5166550;27;20041;-78
2023/10/18 01:08:26;;;;;;;2.13;1.35;;;6.80;90.00;;;;;;5184674;27;20076;-78
2023/10/18 01:10:51;;;;;;;2.20;1.20;;;6.80;90.00;;;;;;5146611;27;20061;-78
2023/10/18 01:13:20;;;;;;;2.35;1.15;;;6.80;90.00;;;;;;5144714;27;20094;-78
2023/10/18 01:15:46;;;;;;;2.65;1.40;;;6.70;90.00;;;;;;5182397;27;20050;-78
2023/10/18 01:18:12;;;;;;;3.33;1.70;;;6.80;90.00;;;;;;5165920;27;20080;-78
2023/10/18 01:20:40;;;;;;;2.75;1.33;;;6.70;90.00;;;;;;5146454;27;20042;-78
2023/10/18 01:23:07;;;;;;;1.83;1.30;;;6.70;90.00;;;;;;5169030;27;20050;-78
2023/10/18 01:25:34;;;;;;;2.15;1.27;;;6.70;90.10;;;;;;5147135;27;20046;-78
2023/10/18 01:28:00;;;;;;;2.28;1.20;;;6.70;90.10;;;;;;5186604;27;20062;-78
2023/10/18 01:30:27;;;;;;;2.60;1.50;;;6.70;90.10;;;;;;5167538;27;20120;-78
2023/10/18 01:32:53;;;;;;;2.08;1.40;;;6.70;90.10;;;;;;5149836;27;20054;-78
2023/10/18 01:35:21;;;;;;;2.95;1.40;;;6.60;90.00;;;;;;5168287;27;20073;-78
2023/10/18 01:37:49;;;;;;;2.28;1.40;;;6.70;90.10;;;;;;5167394;27;20043;-78
2023/10/18 01:40:41;;;;;;;2.35;1.45;;;6.60;90.00;;;;;;5165415;27;20124;-78
2023/10/18 01:43:00;;;;;;;2.97;1.55;;;6.60;90.10;;;;;;5169369;27;20374;-78
2023/10/18 01:45:28;;;;;;;2.78;1.55;;;6.60;90.10;;;;;;5149717;27;20035;-78
2023/10/18 01:47:57;;;;;;;1.45;1.08;;;6.60;90.10;;;;;;5165405;27;20057;-78
2023/10/18 01:50:23;;;;;;;2.15;1.40;;;6.60;90.10;;;;;;5148733;27;20035;-78
2023/10/18 01:52:50;;;;;;;2.25;1.58;;;6.60;90.10;;;;;;5133828;27;20082;-78
2023/10/18 01:55:17;;;;;;;1.35;1.02;;;6.60;90.10;;;;;;5190785;27;20451;-78
2023/10/18 01:57:44;;;;;;;2.03;1.30;;;6.60;90.10;;;;;;5150258;27;20129;-78
2023/10/18 02:00:15;;;;;;;2.70;1.45;;;6.70;90.10;;;;;;5165023;27;20509;-78
2023/10/18 02:02:40;;;;;;;2.10;1.33;;;6.60;90.10;;;;;;5165638;27;20039;-79
2023/10/18 02:05:08;;;;;;;3.03;1.30;;;6.60;90.10;;;;;;5150772;27;20042;-78
2023/10/18 02:07:35;;;;;;;1.90;1.35;;;6.60;90.10;;;;;;5169009;27;20034;-78
2023/10/18 02:10:02;;;;;;;2.50;1.38;;;6.50;90.10;;;;;;5188791;27;20030;-78
2023/10/18 02:12:29;;;;;;;2.22;1.17;;;6.50;90.10;;;;;;5149215;27;20042;-78
2023/10/18 02:14:56;;;;;;;1.95;1.20;;;6.50;90.10;;;;;;5164793;27;20046;-78
2023/10/18 02:17:21;;;;;;;1.98;1.10;;;6.50;90.10;;;;;;5184191;27;20069;-78
2023/10/18 02:19:48;;;;;;;1.85;1.13;;;6.50;90.10;;;;;;5163701;27;20039;-78
2023/10/18 02:22:16;;;;;;;1.42;1.02;;;6.50;90.10;;;;;;5184504;27;20063;-78
2023/10/18 02:24:43;;;;;;;1.67;1.15;;;6.50;90.10;;;;;;5185607;27;20038;-78
2023/10/18 02:27:09;;;;;;;1.90;1.10;;;6.50;90.10;;;;;;5173190;27;20034;-78
2023/10/18 02:29:36;;;;;;;1.45;1.00;;;6.50;90.40;;;;;;5168399;27;20038;-78
2023/10/18 02:32:05;;;;;;;1.48;1.17;;;6.50;90.10;;;;;;5170219;27;20086;-78
2023/10/18 02:34:34;;;;;;;1.95;1.20;;;6.50;90.10;;;;;;5137374;27;20079;-78
2023/10/18 02:37:01;;;;;;;1.85;1.10;;;6.50;90.10;;;;;;5172618;27;20405;-78
2023/10/18 02:39:28;;;;;;;2.58;1.30;;;6.40;90.10;;;;;;5150834;27;20042;-79
2023/10/18 02:41:56;;;;;;;1.92;1.27;;;6.50;90.20;;;;;;5169741;27;20633;-78
2023/10/18 02:44:22;;;;;;;3.05;1.60;;;6.40;90.10;;;;;;5162840;27;20512;-78
2023/10/18 02:46:52;;;;;;;1.90;1.25;;;6.50;90.20;;;;;;5146198;27;20454;-78
2023/10/18 02:49:18;;;;;;;2.55;1.45;;;6.30;90.10;;;;;;5153798;27;20065;-78
2023/10/18 02:51:45;;;;;;;3.58;1.60;;;6.40;90.10;;;;;;5165917;27;20038;-78
2023/10/18 02:54:23;;;;;;;2.22;1.33;;;6.40;90.10;;;;;;5165240;27;20046;-78
2023/10/18 02:56:50;;;;;;;3.97;1.60;;;6.40;90.10;;;;;;5171662;27;20045;-79
2023/10/18 02:59:21;;;;;;;2.38;1.40;;;6.40;90.10;;;;;;5151471;27;20050;-79
2023/10/18 03:01:49;;;;;;;2.63;1.20;;;6.50;90.20;;;;;;5175487;27;20426;-79
2023/10/18 03:04:16;;;;;;;2.40;1.40;;;6.40;90.10;;;;;;5193903;27;20112;-79
2023/10/18 03:06:43;;;;;;;1.73;1.17;;;6.40;90.10;;;;;;5158749;27;20038;-78
2023/10/18 03:09:26;;;;;;;2.92;1.50;;;6.30;90.10;;;;;;5176857;27;20046;-78
2023/10/18 03:11:55;;;;;;;2.88;1.65;;;6.30;90.10;;;;;;5178603;27;20037;-78
2023/10/18 03:14:27;;;;;;;2.85;1.70;;;6.40;90.20;;;;;;5175532;27;20178;-78
2023/10/18 03:16:55;;;;;;;3.22;1.70;;;6.30;90.10;;;;;;5152332;27;20620;-79
2023/10/18 03:19:22;;;;;;;3.45;1.67;;;6.30;90.10;;;;;;5189604;27;20042;-78
2023/10/18 03:21:50;;;;;;;2.78;1.73;;;6.30;90.10;;;;;;5191326;27;20038;-79
2023/10/18 03:24:19;;;;;;;3.92;1.70;;;6.30;90.10;;;;;;5191161;27;20393;-78
2023/10/18 03:26:46;;;;;;;3.60;1.88;;;6.40;90.10;;;;;;5188563;27;20034;-79
2023/10/18 03:29:11;;;;;;;3.08;1.65;;;6.40;90.10;;;;;;5188403;27;20038;-78
2023/10/18 03:31:43;;;;;;;2.42;1.33;;;6.50;90.10;;;;;;5167971;27;20161;-79
2023/10/18 03:34:13;;;;;;;3.17;1.67;;;6.50;90.00;;;;;;5110345;28;20063;-78
2023/10/18 03:39:19;;;;;;;2.05;1.50;;;6.40;90.00;;;;;;5126319;28;20023;-79
2023/10/18 03:41:49;;;;;;;1.95;1.27;;;6.50;90.00;;;;;;5127592;28;20043;-79
2023/10/18 03:44:21;;;;;;;2.50;1.40;;;6.50;90.00;;;;;;5110839;28;20036;-78
2023/10/18 03:46:47;;;;;;;;;;;6.50;90.00;;;;;;5123641;28;20126;-78
2023/10/18 03:49:24;;;;;;;2.65;1.20;;;6.50;89.90;;;;;;5108218;28;19919;-78
2023/10/18 03:51:53;;;;;;;1.65;1.27;;;6.50;89.90;;;;;;5123678;28;20108;-78
2023/10/18 03:54:20;;;;;;;1.67;1.23;;;6.40;89.90;;;;;;5107796;28;20420;-79
2023/10/18 03:56:51;;;;;;;2.15;1.33;;;6.50;89.90;;;;;;5107144;28;20040;-78
2023/10/18 03:59:21;;;;;;;;;;;6.50;89.90;;;;;;5109374;28;20035;-80
2023/10/18 04:04:35;;;;;;;1.95;1.40;;;6.40;89.90;;;;;;5126163;27;20042;-79
2023/10/18 04:07:08;;;;;;;;;;;6.40;89.90;;;;;;5155656;27;20438;-78
2023/10/18 04:09:34;;;;;;;2.03;1.27;;;6.40;89.90;;;;;;5190409;27;19910;-79
2023/10/18 04:12:00;;;;;;;2.42;1.35;;;6.30;89.80;;;;;;5170104;27;20378;-79
2023/10/18 04:14:25;;;;;;;2.38;1.23;;;6.40;90.00;;;;;;5177771;27;20034;-75
2023/10/18 04:16:57;;;;;;;2.47;1.33;;;6.30;89.90;;;;;;5141417;27;20026;-76
2023/10/18 04:19:24;;;;;;;2.33;1.33;;;6.30;90.00;;;;;;5161725;27;20042;-79
2023/10/18 04:21:53;;;;;;;2.10;1.30;;;6.40;90.00;;;;;;5179021;27;20037;-75
2023/10/18 04:24:20;;;;;;;3.17;1.38;;;6.20;90.00;;;;;;5176706;27;20527;-75
2023/10/18 04:26:48;;;;;;;2.85;1.33;;;6.20;90.00;;;;;;5143514;27;20050;-79
2023/10/18 04:29:22;;;;;;;1.90;1.30;;;6.30;90.10;;;;;;5194462;27;20038;-79
2023/10/18 04:31:49;;;;;;;2.33;1.38;;;6.30;90.10;;;;;;5173947;27;20042;-78
2023/10/18 04:34:20;;;;;;;2.80;1.38;;;6.30;90.10;;;;;;5152644;27;20046;-78
2023/10/18 04:36:51;;;;;;;2.35;1.45;;;6.30;90.10;;;;;;5170305;27;20038;-79
2023/10/18 04:39:20;;;;;;;2.03;1.27;;;6.30;90.10;;;;;;5155602;27;20034;-78
2023/10/18 04:41:45;;;;;;;2.00;1.23;;;6.20;90.10;;;;;;5155174;27;20030;-79
2023/10/18 04:44:18;;;;;;;3.00;1.40;;;6.20;90.10;;;;;;5152938;27;20050;-78
2023/10/18 04:46:47;;;;;;;1.88;1.02;;;6.20;90.10;;;;;;5188886;27;20063;-78
2023/10/18 04:49:18;;;;;;;1.30;1.05;;;6.20;90.10;;;;;;5138432;27;20037;-79
2023/10/18 04:51:44;;;;;;;1.90;1.27;;;6.20;90.10;;;;;;5192022;27;20045;-79
2023/10/18 04:54:15;;;;;;;2.25;1.38;;;6.20;90.10;;;;;;5191680;27;20067;-79
2023/10/18 04:56:44;;;;;;;2.15;1.17;;;6.20;90.10;;;;;;5157538;27;20042;-78
2023/10/18 04:59:29;;;;;;;2.60;1.50;;;6.20;90.10;;;;;;5173187;27;20034;-79
2023/10/18 05:01:57;;;;;;;2.58;1.42;;;6.20;90.10;;;;;;5154968;27;20062;-76
2023/10/18 05:04:29;;;;;;;3.13;1.25;;;6.20;90.10;;;;;;5180217;27;20038;-76
2023/10/18 05:06:56;;;;;;;2.30;1.40;;;6.20;90.40;;;;;;5159004;27;20046;-76
2023/10/18 05:12:27;;;;;;;2.45;1.60;;;6.20;90.40;;;;;;5148872;27;20042;-76
2023/10/18 05:15:09;;;;;;;2.75;1.40;;;6.20;90.10;;;;;;5182681;27;20106;-78
2023/10/18 05:17:42;;;;;;;2.80;1.63;;;6.20;90.20;;;;;;5143569;27;20158;-79
2023/10/18 05:20:22;;;;;;;2.83;1.40;;;6.10;90.10;;;;;;5182613;27;20038;-77
2023/10/18 05:22:50;;;;;;;2.22;1.40;;;6.10;90.10;;;;;;5159453;27;20371;-77
2023/10/18 05:25:23;;;;;;;1.73;1.20;;;6.10;90.10;;;;;;5156089;27;20035;-80
2023/10/18 05:33:15;;;;;;;1.67;1.23;;;6.10;90.10;;;;;;5177075;27;20130;-76
2023/10/18 05:35:43;;;;;;;2.65;1.40;;;6.10;90.10;;;;;;5175646;27;20094;-78
2023/10/18 05:38:40;;;;;;;2.08;1.20;;;6.10;90.10;;;;;;5171959;27;20049;-78
2023/10/18 05:40:56;;;;;;;2.60;1.40;;;6.10;90.10;;;;;;5175324;27;20073;-78
2023/10/18 05:43:22;;;;;;;2.42;1.50;;;6.10;90.10;;;;;;5152759;27;20100;-78
2023/10/18 05:45:49;;;;;;;2.58;1.40;;;6.10;90.10;;;;;;5173409;27;20049;-78
2023/10/18 05:48:22;;;;;;;2.97;1.63;;;6.10;90.10;;;;;;5172352;27;20522;-78
2023/10/18 05:50:56;;;;;;;3.28;1.50;;;6.10;90.10;;;;;;5151228;27;20106;-78
2023/10/18 05:53:28;;;;;;;2.80;1.50;;;6.10;90.10;;;;;;5134263;27;20080;-78
2023/10/18 05:55:54;;;;;;;2.65;1.50;;;6.10;90.10;;;;;;5185261;27;20038;-78
2023/10/18 05:58:27;;;;;;;2.45;1.33;;;6.10;90.10;;;;;;5187890;27;20039;-77
2023/10/18 06:00:55;;;;;;;2.28;1.45;;;6.10;90.10;;;;;;5172297;27;20034;-78
2023/10/18 06:03:25;;;;;;;2.53;1.52;;;6.10;90.10;;;;;;5154727;27;20097;-77
2023/10/18 06:05:55;;;;;;;2.67;1.40;;;6.00;90.00;;;;;;5136012;27;20026;-78
2023/10/18 06:08:22;;;;;;;1.90;1.10;;;6.10;90.10;;;;;;5170026;27;20038;-77
2023/10/18 06:10:55;;;;;;;3.00;1.40;;;6.20;90.10;;;;;;5170930;27;20052;-78
2023/10/18 06:13:21;;;;;;;1.70;1.10;;;6.10;90.10;;;;;;5168641;27;20042;-77
2023/10/18 06:15:50;;;;;;;2.03;1.20;;;6.10;90.10;;;;;;5165785;27;20068;-77
2023/10/18 06:18:18;;;;;;;2.08;1.40;;;6.10;90.10;;;;;;5165424;27;20049;-78
2023/10/18 06:20:45;;;;;;;1.50;1.13;;;6.10;90.10;;;;;;5169316;27;20038;-78
2023/10/18 06:25:57;;;;;;;2.90;1.60;;;6.10;90.10;;;;;;5178417;27;20046;-78
2023/10/18 06:28:25;;;;;;;3.05;1.58;;;6.00;90.10;;;;;;5159409;27;20034;-78
2023/10/18 06:30:52;;;;;;;1.85;1.15;;;6.10;90.10;;;;;;5154351;27;20072;-77
2023/10/18 06:33:19;;;;;;;2.10;1.30;;;6.00;90.10;;;;;;5152631;27;20063;-78
2023/10/18 06:35:53;;;;;;;2.60;1.40;;;6.10;90.10;;;;;;5169258;27;20493;-77
2023/10/18 06:38:22;;;;;;;1.30;1.00;;;6.10;90.10;;;;;;5167456;27;20129;-79
2023/10/18 06:41:05;;;;;;;1.38;1.08;;;6.10;90.10;;;;;;5148979;27;20112;-78
2023/10/18 06:43:36;;;;;;;1.58;1.13;;;6.10;90.10;;;;;;5145151;27;20045;-81
2023/10/18 06:46:04;;;;;;;2.17;1.40;;;6.10;90.10;;;;;;5161518;27;20042;-77
2023/10/18 06:48:30;;;;;;;2.28;1.30;;;6.10;90.10;;;;;;5184424;27;20046;-78
2023/10/18 06:51:01;;;;;;;2.17;1.30;;;6.20;90.30;;;;;;5167061;27;20042;-78
2023/10/18 06:53:31;;;;;;;2.15;1.27;;;6.20;90.10;;;;;;5185646;27;20500;-79
2023/10/18 06:56:19;;;;;;;2.90;1.30;;;6.20;90.00;;;;;;5165209;27;20043;-79
2023/10/18 06:58:45;;;;;;;2.97;1.50;;;6.20;90.00;;;;;;5124305;28;20058;-78
2023/10/18 07:01:19;;;;;;;2.00;1.42;;;6.20;90.00;;;;;;5104122;28;20088;-79
2023/10/18 07:03:46;;;;;;;3.00;1.60;;;6.20;90.00;;;;;;5141475;28;20050;-76
2023/10/18 07:06:23;;;;;;;1.92;1.33;;;6.20;90.00;;;;;;5120911;28;20525;-79
2023/10/18 07:08:50;;;;;;;2.05;1.30;;;6.30;90.00;;;;;;5108304;28;20073;-78
2023/10/18 07:11:17;;;;;;;2.53;1.38;;;6.30;90.00;;;;;;5125895;28;20129;-79
2023/10/18 07:13:46;;;;;;;2.17;1.42;;;6.30;90.00;;;;;;5061903;28;20044;-78
2023/10/18 07:21:46;;;;;;;1.85;1.20;;;6.40;89.80;;;;;;5058450;28;20041;-78
2023/10/18 07:24:11;;;;;;;1.90;1.10;;;6.40;90.10;;;;;;5028044;28;20593;-79
2023/10/18 07:26:39;;;;;;;1.23;0.90;;;6.40;89.70;;;;;;5046476;28;20135;-77
2023/10/18 07:29:07;;;;;;;2.05;1.33;;;6.50;89.70;;;;;;5042735;28;20040;-77
2023/10/18 07:31:41;;;;;;;3.13;1.50;;;6.50;89.60;;;;;;5053813;28;20076;-77
2023/10/18 07:34:08;;;;;;;1.67;1.00;;;6.50;89.50;;;;;;5037752;28;20404;-77
2023/10/18 07:36:38;;;;;;;2.22;1.30;;;6.60;89.50;;;;;;5053918;28;20052;-78
2023/10/18 07:39:05;;;;;;;1.80;1.10;;;6.60;89.60;;;;;;5037189;28;20037;-78
2023/10/18 07:41:34;;;;;;;1.38;1.10;;;6.70;89.50;;;;;;4994429;28;20038;-78
2023/10/18 07:44:00;;;;;;;2.08;1.20;;;6.70;89.40;;;;;;5020229;28;20090;-78
2023/10/18 07:46:27;;;;;;;2.33;1.40;;;6.70;89.40;;;;;;5026764;28;20037;-78
2023/10/18 07:48:54;;;;;;;2.00;1.20;;;6.80;89.40;;;;;;5036764;28;20035;-78
2023/10/18 07:51:23;;;;;;;2.38;1.45;;;6.80;89.30;;;;;;5086837;28;20107;-78
2023/10/18 07:53:54;;;;;;;2.53;1.40;;;6.80;89.20;;;;;;5072918;28;20047;-78
2023/10/18 07:56:27;;;;;;;1.50;1.13;;;6.90;89.30;;;;;;5061029;28;20563;-78
2023/10/18 08:04:31;;;;;;;2.85;1.55;;;7.00;89.00;;;;;;5065898;28;20099;-80
2023/10/18 08:06:57;;;;;;;1.75;1.02;;;7.10;89.00;;;;;;5041741;28;20044;-80
2023/10/18 08:09:28;;;;;;;1.42;1.05;;;7.10;88.90;;;;;;5054934;28;20470;-80
2023/10/18 08:11:55;;;;;;;;;;;7.20;88.90;;;;;;5059898;28;20056;-80
2023/10/18 08:14:24;;;;;;;1.38;0.95;;;7.20;88.80;;;;;;5079922;28;19913;-80
2023/10/18 08:16:55;;;;;;;2.13;1.10;;;7.30;88.70;;;;;;5060188;28;20056;-80
2023/10/18 08:19:25;;;;;;;1.75;1.17;;;7.40;88.60;;;;;;5105601;28;20047;-79
2023/10/18 08:24:36;;;;;;;2.20;1.10;;;7.40;88.40;;;;;;5104910;28;20086;-79
2023/10/18 08:27:09;;;;;;;0.98;0.85;;;7.50;88.40;;;;;;5061293;28;20140;-78
2023/10/18 08:29:36;;;;;;;1.35;0.93;;;7.60;88.50;;;;;;5093728;28;20047;-77
2023/10/18 08:32:14;;;;;;;1.63;0.88;;;7.70;88.40;;;;;;5079250;28;20507;-77
2023/10/18 08:34:43;;;;;;;1.38;1.00;;;7.70;88.20;;;;;;5053866;28;20049;-77
2023/10/18 08:37:14;;;;;;;2.17;1.02;;;7.70;88.20;;;;;;5037020;28;20053;-78
2023/10/18 08:39:52;;;;;;;1.48;0.77;;;7.80;88.10;;;;;;5026902;28;20039;-78
2023/10/18 08:42:24;;;;;;;2.58;1.00;;;7.80;88.00;;;;;;5079261;28;20047;-78
2023/10/18 08:44:55;;;;;;;2.10;1.20;;;7.90;88.00;;;;;;5082474;28;20141;-78
2023/10/18 08:47:29;;;;;;;1.20;1.00;;;8.00;87.90;;;;;;5100216;28;20051;-78
2023/10/18 08:49:58;;;;;;;1.85;1.00;;;8.10;87.80;;;;;;5106094;28;20147;-80
2023/10/18 08:52:28;;;;;;;1.90;1.30;;;8.30;87.90;;;;;;5101119;28;20036;-77
2023/10/18 08:54:55;;;;;;;1.45;1.10;;;8.20;87.70;;;;;;5077054;28;20051;-76
2023/10/18 08:57:41;;;;;;;2.17;1.30;;;8.20;87.60;;;;;;5095188;28;20051;-78
2023/10/18 09:01:02;;;;;;;1.58;1.10;;;8.20;87.50;;;;;;5062006;28;20165;-78
2023/10/18 09:03:07;;;;;;;1.52;0.90;;;8.40;87.50;;;;;;5054628;28;20528;-79
2023/10/18 09:05:36;;;;;;;2.55;1.10;;;8.50;87.40;;;;;;5034725;28;20036;-78
2023/10/18 09:08:07;;;;;;;1.80;1.02;;;8.60;87.30;;;;;;5037563;28;20113;-79
2023/10/18 09:10:48;;;;;;;1.27;1.10;;;8.70;87.20;;;;;;5044661;28;20491;-79
2023/10/18 09:16:02;;;;;;;1.95;1.30;;;8.80;87.00;;;;;;5070484;28;20036;-76
2023/10/18 09:18:32;;;;;;;1.38;0.85;;;8.80;86.70;;;;;;5053960;28;20098;-76
2023/10/18 09:21:17;;;;;;;1.77;1.10;;;8.90;86.70;;;;;;5037023;28;20482;-76
2023/10/18 09:23:44;;;;;;;1.75;1.27;;;9.00;86.60;;;;;;5070207;28;20143;-76
2023/10/18 09:26:12;;;;;;;2.08;1.20;;;9.10;86.50;;;;;;5036661;28;20040;-76
2023/10/18 09:28:41;;;;;;;2.38;1.40;;;9.20;86.50;;;;;;5036998;28;20051;-75
2023/10/18 09:31:11;;;;;;;1.73;1.20;;;9.20;86.40;;;;;;5090386;28;20047;-76
2023/10/18 09:33:40;;;;;;;1.27;1.00;;;9.20;86.20;;;;;;5043897;28;20079;-76
2023/10/18 09:36:31;;;;;;;1.80;1.20;;;9.30;86.30;;;;;;5116224;27;20134;-79
2023/10/18 09:39:13;;;;;;;1.20;0.95;;;9.30;86.20;;;;;;5093116;28;20043;-79
2023/10/18 09:41:46;;;;;;;1.42;1.05;;;9.40;86.10;;;;;;5089600;28;20127;-79
2023/10/18 09:44:46;;;;;;;1.92;1.20;;;9.40;86.00;;;;;;5041270;28;20052;-81
2023/10/18 09:47:23;;;;;;;1.35;0.85;;;9.40;85.90;;;;;;5020474;28;20044;-79
2023/10/18 09:49:52;;;;;;;1.60;1.00;;;9.50;86.00;;;;;;5028643;28;20425;-78
2023/10/18 09:52:19;;;;;;;0.82;0.80;;;9.50;86.00;;;;;;5012983;28;20034;-76
2023/10/18 09:54:50;;;;;;;2.72;1.50;;;9.60;86.00;;;;;;5013354;28;20076;-78
2023/10/18 09:57:33;;;;;;;1.25;1.10;;;9.60;85.90;;;;;;4937726;29;20043;-80
2023/10/18 10:00:10;;;;;;;1.35;1.00;;;9.60;85.90;;;;;;4898397;29;20123;-77
2023/10/18 10:02:40;;;;;;;1.75;1.20;;;9.70;86.50;;;;;;4898374;29;20044;-80
2023/10/18 10:05:22;;;;;;;1.50;1.20;;;9.70;85.90;;;;;;4898028;29;20052;-77
2023/10/18 10:07:48;;;;;;;;;;;9.70;85.80;;;;;;4913870;29;20138;-77
2023/10/18 10:10:24;;;;;;;1.70;0.68;;;9.70;85.70;;;;;;4955451;28;20433;-78
2023/10/18 10:12:58;;;;;;;0.70;0.65;;;9.80;85.60;;;;;;4978229;28;20054;-78
2023/10/18 10:15:28;;;;;;;1.15;0.88;;;9.90;85.60;;;;;;4989701;28;20046;-78
2023/10/18 10:17:57;;;;;;;1.35;0.90;;;9.90;85.50;;;;;;4972914;28;20586;-77
2023/10/18 10:20:31;;;;;;;1.25;1.00;;;10.00;85.40;;;;;;5013734;28;20041;-76
2023/10/18 10:23:04;;;;;;;1.42;0.85;;;10.00;85.30;;;;;;5049863;28;20134;-77
2023/10/18 10:25:32;;;;;;;1.85;1.20;;;10.10;85.20;;;;;;5104095;28;20031;-77
2023/10/18 10:27:59;;;;;;;1.65;0.95;;;10.10;85.10;;;;;;5111610;28;20039;-77
2023/10/18 10:30:35;;;;;;;1.38;0.90;;;10.30;85.00;;;;;;5093531;28;20051;-78
2023/10/18 10:33:11;;;;;;;1.17;0.90;;;10.40;84.90;;;;;;5092769;28;20047;-77
2023/10/18 10:35:44;;;;;;;1.10;1.00;;;10.50;84.80;;;;;;5149449;27;20049;-76
2023/10/18 10:38:14;;;;;;;0.70;0.70;;;10.60;84.60;;;;;;5171561;27;20134;-77
2023/10/18 10:40:43;;;;;;;1.15;0.90;;;10.60;84.40;;;;;;5155230;27;20074;-76
2023/10/18 10:43:11;;;;;;;1.10;0.73;;;10.70;84.30;;;;;;5152126;27;20486;-76
2023/10/18 10:45:55;;;;;;;1.20;0.85;;;10.80;84.20;;;;;;5157127;27;20081;-77
2023/10/18 10:48:31;;;;;;;1.33;0.80;;;10.90;84.10;;;;;;5143899;27;20056;-76
2023/10/18 10:51:06;;;;;;;1.30;1.00;;;10.90;84.10;;;;;;5124794;27;20079;-78
2023/10/18 10:53:59;;;;;;;1.35;1.00;;;11.00;84.00;;;;;;5124589;27;20094;-77
2023/10/18 10:56:42;;;;;;;1.00;0.80;;;11.10;83.90;;;;;;5177597;27;20042;-77
2023/10/18 10:59:15;;;;;;;1.27;0.80;;;11.40;83.90;;;;;;5159181;27;20039;-76
2023/10/18 11:02:06;;;;;;;1.42;0.80;;;11.20;83.60;;;;;;5177491;27;20121;-76
2023/10/18 11:07:22;;;;;;;1.45;0.93;;;11.40;83.40;;;;;;5177080;27;20054;-76
2023/10/18 11:09:49;;;;;;;1.00;0.90;;;11.40;83.40;;;;;;5158297;27;20521;-75
2023/10/18 11:12:14;;;;;;;1.17;1.00;;;11.50;83.40;;;;;;5157242;27;20099;-76
2023/10/18 11:14:42;;;;;;;1.08;0.98;;;11.50;83.20;;;;;;5177304;27;20473;-77
2023/10/18 11:17:17;;;;;;;0.95;0.90;;;11.60;83.70;;;;;;5158109;27;20061;-77
2023/10/18 11:19:53;;;;;;;0.88;0.88;;;11.60;83.00;;;;;;5160103;27;20129;-77
2023/10/18 11:22:19;;;;;;;1.40;1.02;;;11.70;83.00;;;;;;5156849;27;20095;-77
2023/10/18 11:24:49;;;;;;;1.63;0.77;;;11.70;82.90;;;;;;5141027;27;20049;-75
2023/10/18 11:27:18;;;;;;;1.30;1.00;;;11.70;82.80;;;;;;5156800;27;20038;-76
2023/10/18 11:29:46;;;;;;;1.00;0.90;;;11.80;82.80;;;;;;5177167;27;20046;-77
2023/10/18 11:32:18;;;;;;;1.50;1.10;;;11.80;82.80;;;;;;5141284;27;20060;-76
2023/10/18 11:34:45;;;;;;;2.05;1.02;;;11.90;82.90;;;;;;5159493;27;20050;-75
2023/10/18 11:37:14;;;;;;;1.45;0.98;;;11.90;82.80;;;;;;5123695;27;20047;-75
2023/10/18 11:39:41;;;;;;;1.27;1.05;;;12.00;82.70;;;;;;5158672;27;20129;-77
2023/10/18 11:42:10;;;;;;;1.13;0.90;;;12.00;82.60;;;;;;5176826;27;20034;-78
2023/10/18 11:44:39;;;;;;;1.20;1.00;;;12.00;82.50;;;;;;5158124;27;20067;-77
2023/10/18 11:47:22;;;;;;;1.23;0.98;;;12.10;82.50;;;;;;5140048;27;20553;-77
2023/10/18 11:49:57;;;;;;;1.20;0.90;;;12.20;82.40;;;;;;5184159;27;20477;-75
2023/10/18 11:52:23;;;;;;;1.30;1.15;;;12.30;82.30;;;;;;5145457;27;20043;-77
2023/10/18 11:54:53;;;;;;;1.35;1.02;;;12.30;82.10;;;;;;5158597;27;20038;-77
2023/10/18 11:57:38;;;;;;;1.23;1.02;;;12.40;82.00;;;;;;5158490;27;20042;-76
2023/10/18 12:02:43;;;;;;;1.60;0.95;;;12.50;81.70;;;;;;5177259;27;20034;-78
2023/10/18 12:05:15;;;;;;;1.38;1.10;;;12.60;81.80;;;;;;5178730;27;20038;-77
2023/10/18 12:07:44;;;;;;;2.15;1.10;;;12.50;81.60;;;;;;5163052;27;20115;-77
2023/10/18 12:10:47;;;;;;;1.58;1.10;;;12.60;81.50;;;;;;5159532;27;20179;-77
2023/10/18 12:12:58;;;;;;;1.25;1.10;;;12.70;81.50;;;;;;5150046;27;20030;-77
2023/10/18 12:15:30;;;;;;;1.10;1.00;;;12.70;81.30;;;;;;5141593;27;20528;-79
2023/10/18 12:17:56;;;;;;;1.10;1.00;;;12.80;81.30;;;;;;5130964;27;20126;-80
2023/10/18 12:20:34;;;;;;;1.55;1.00;;;12.80;81.10;;;;;;5162834;27;20481;-77
2023/10/18 12:23:10;;;;;;;0.98;0.90;;;12.80;81.00;;;;;;5176178;27;20110;-77
2023/10/18 12:25:38;;;;;;;0.98;0.80;;;13.00;81.00;;;;;;5142119;27;20042;-77
2023/10/18 12:28:12;;;;;;;1.10;0.90;;;13.00;80.90;;;;;;5156999;27;20067;-75
2023/10/18 12:30:39;;;;;;;1.17;1.05;;;13.10;80.80;;;;;;5139256;27;20046;-75
2023/10/18 12:33:06;;;;;;;1.05;0.95;;;13.20;80.70;;;;;;5154880;27;20035;-76
2023/10/18 12:35:33;;;;;;;1.70;1.10;;;13.20;80.60;;;;;;5139368;27;20042;-77
2023/10/18 12:37:59;;;;;;;2.30;1.30;;;13.20;80.60;;;;;;5157325;27;20038;-76
2023/10/18 12:40:28;;;;;;;1.15;0.95;;;13.20;80.50;;;;;;5157087;27;20061;-76
2023/10/18 12:42:56;;;;;;;1.38;1.08;;;13.30;80.50;;;;;;5139978;27;20078;-75
2023/10/18 12:45:22;;;;;;;1.23;1.10;;;13.30;80.50;;;;;;5176204;27;20034;-76
2023/10/18 12:47:48;;;;;;;1.40;1.00;;;13.30;80.50;;;;;;5139059;27;20041;-76
2023/10/18 12:50:18;;;;;;;1.52;1.10;;;13.30;80.50;;;;;;5175501;27;20087;-76
2023/10/18 12:52:44;;;;;;;1.35;0.90;;;13.30;80.50;;;;;;5155681;27;20087;-76
2023/10/18 12:57:55;;;;;;;1.05;0.88;;;13.40;80.40;;;;;;5159436;27;20049;-74
2023/10/18 13:00:25;;;;;;;0.90;0.80;;;13.50;80.40;;;;;;5156663;27;20034;-76
2023/10/18 13:03:32;;;;;;;0.82;0.75;;;13.50;80.20;;;;;;5139577;27;20026;-75
2023/10/18 13:05:43;;;;;;;1.48;0.80;;;13.50;80.20;;;;;;5175101;27;20508;-76
2023/10/18 13:08:22;;;;;;;0.80;0.77;;;13.50;80.20;;;;;;5140346;27;20043;-76
2023/10/18 13:11:18;;;;;;;1.35;0.90;;;13.50;80.30;;;;;;5124955;27;20049;-76
2023/10/18 13:13:35;;;;;;;1.00;0.90;;;13.40;80.30;;;;;;5174634;27;20099;-76
2023/10/18 13:16:01;;;;;;;1.83;1.13;;;13.40;80.30;;;;;;5138082;27;20076;-76
2023/10/18 13:18:27;;;;;;;1.10;0.93;;;13.50;80.40;;;;;;5137533;27;20043;-76
2023/10/18 13:20:55;;;;;;;1.30;0.93;;;13.50;80.40;;;;;;5175503;27;20034;-75
2023/10/18 13:23:22;;;;;;;2.13;1.02;;;13.50;80.30;;;;;;5139187;27;20069;-76
2023/10/18 13:25:54;;;;;;;1.15;0.77;;;13.50;80.20;;;;;;5121841;27;20106;-77
2023/10/18 13:28:51;;;;;;;1.00;0.90;;;13.50;80.10;;;;;;5139865;27;20175;-77
2023/10/18 13:31:07;;;;;;;1.23;0.90;;;13.60;80.20;;;;;;5174362;27;20054;-77
2023/10/18 13:33:33;;;;;;;1.63;1.00;;;13.60;80.10;;;;;;5138052;27;20045;-75
2023/10/18 13:36:01;;;;;;;1.17;1.00;;;13.60;80.00;;;;;;5139057;27;20151;-76
2023/10/18 13:38:28;;;;;;;1.05;0.80;;;13.70;80.00;;;;;;5153956;27;20046;-75
2023/10/18 13:40:54;;;;;;;0.65;0.65;;;13.70;79.90;;;;;;5174349;27;20400;-76
2023/10/18 13:43:24;;;;;;;1.17;0.98;;;13.70;80.00;;;;;;5174996;27;20042;-76
2023/10/18 13:45:59;;;;;;;1.35;1.00;;;13.70;79.90;;;;;;5156827;27;20122;-75
2023/10/18 13:48:25;;;;;;;1.00;0.80;;;13.70;79.80;;;;;;5155719;27;20046;-76
2023/10/18 13:50:53;;;;;;;0.93;0.73;;;13.60;80.40;;;;;;5157001;27;20045;-75
2023/10/18 13:53:21;;;;;;;0.70;0.70;;;13.70;79.90;;;;;;5156107;27;20049;-75